Terminal Aerodrome Forecast
Issued by NWS

Home | Current Version | Previous Version | Text Only | Print | Product List | Glossary On
Versions: 1 2 3 4 5 6 7 8 9 10 11 12 13
623
FTUS46 KLOX 191401 AAA
TAFBUR
TAF AMD
KBUR 191401Z 1914/2012 VRB03KT 5SM BR SCT010
     FM191600 16004KT P6SM FEW012 BKN250
     FM192000 18008KT P6SM BKN250
     FM200200 VRB03KT P6SM BKN100
     FM200600 VRB03KT P6SM BKN015 OVC050=

USA.gov is the U.S. government's official web portal to all federal, state and local government web resources and services.